Time;durP1;ratioP1;P1;durP2;ratioP2;P2;SDS_P1;SDS_P2;PMS_P1;PMS_P2;Temp;Humidity;BMP_temperature;BMP_pressure;BME280_temperature;BME280_humidity;BME280_pressure;Samples;Min_cycle;Max_cycle;Signal;HPM_P1;HPM_P2
2024/01/25 00:02:24;;;;;;;7.63;1.40;;;;;;;;;;5086432;28;20063;-67
2024/01/25 00:04:52;;;;;;;8.55;1.75;;;;;;;;;;5090296;28;20043;-67
2024/01/25 00:07:21;;;;;;;5.85;1.00;;;;;;;;;;5082739;28;20089;-68
2024/01/25 00:09:49;;;;;;;3.88;1.00;;;;;;;;;;5087531;28;20052;-67
2024/01/25 00:12:19;;;;;;;4.80;1.42;;;;;;;;;;5088362;28;20048;-67
2024/01/25 00:14:48;;;;;;;4.88;0.90;;;;;;;;;;5082329;28;20040;-67
2024/01/25 00:17:16;;;;;;;7.47;1.42;;;;;;;;;;5084903;28;20093;-67
2024/01/25 00:19:45;;;;;;;3.65;1.10;;;;;;;;;;5087371;28;20052;-67
2024/01/25 00:22:13;;;;;;;2.47;0.82;;;;;;;;;;5085892;28;20071;-67
2024/01/25 00:24:42;;;;;;;4.35;1.38;;;;;;;;;;5080540;28;20052;-67
2024/01/25 00:27:10;;;;;;;4.60;1.08;;;;;;;;;;5088444;28;20043;-68
2024/01/25 00:29:40;;;;;;;5.00;1.40;;;;;;;;;;5082711;28;20451;-67
2024/01/25 00:32:09;;;;;;;9.45;1.73;;;;;;;;;;5087607;28;20044;-68
2024/01/25 00:34:37;;;;;;;3.25;1.10;;;;;;;;;;5087162;28;20452;-67
2024/01/25 00:37:06;;;;;;;1.75;0.80;;;;;;;;;;5084340;28;20408;-68
2024/01/25 00:39:35;;;;;;;4.90;1.15;;;;;;;;;;5086171;28;20039;-67
2024/01/25 00:42:05;;;;;;;5.05;2.10;;;;;;;;;;5084673;28;20549;-67
2024/01/25 00:44:33;;;;;;;3.15;0.95;;;;;;;;;;5081244;28;20432;-68
2024/01/25 00:47:03;;;;;;;4.72;1.20;;;;;;;;;;5086180;28;20079;-68
2024/01/25 00:49:32;;;;;;;4.70;1.05;;;;;;;;;;5085098;28;20048;-68
2024/01/25 00:52:01;;;;;;;1.42;0.80;;;;;;;;;;5084393;28;20049;-69
2024/01/25 00:54:30;;;;;;;4.22;1.38;;;;;;;;;;5083139;28;20052;-68
2024/01/25 00:56:58;;;;;;;2.40;0.70;;;;;;;;;;5088105;28;20048;-69
2024/01/25 00:59:27;;;;;;;3.38;0.82;;;;;;;;;;5083658;28;20040;-68
2024/01/25 01:01:57;;;;;;;2.00;0.68;;;;;;;;;;5082829;28;20495;-66
2024/01/25 01:04:27;;;;;;;2.33;1.25;;;;;;;;;;5086303;28;20047;-68
2024/01/25 01:06:56;;;;;;;3.38;0.90;;;;;;;;;;5087480;28;20032;-67
2024/01/25 01:09:25;;;;;;;3.35;0.90;;;;;;;;;;5085810;28;20459;-67
2024/01/25 01:11:53;;;;;;;2.22;0.90;;;;;;;;;;5083486;28;20468;-67
2024/01/25 01:14:21;;;;;;;7.57;1.23;;;;;;;;;;5087852;28;20057;-67
2024/01/25 01:16:50;;;;;;;5.18;1.20;;;;;;;;;;5086396;28;20050;-67
2024/01/25 01:19:19;;;;;;;3.92;0.90;;;;;;;;;;5088612;28;20853;-67
2024/01/25 01:21:49;;;;;;;3.53;1.17;;;;;;;;;;5084994;28;20036;-68
2024/01/25 01:24:17;;;;;;;4.22;0.90;;;;;;;;;;5082413;28;20102;-68
2024/01/25 01:26:46;;;;;;;5.50;1.13;;;;;;;;;;5087204;28;20067;-67
2024/01/25 01:29:14;;;;;;;6.28;1.70;;;;;;;;;;5084242;28;20102;-68
2024/01/25 01:31:43;;;;;;;5.10;0.80;;;;;;;;;;5086127;28;20048;-68
2024/01/25 01:34:12;;;;;;;5.32;1.00;;;;;;;;;;5079258;28;20056;-68
2024/01/25 01:36:41;;;;;;;1.85;1.00;;;;;;;;;;5086702;28;20072;-67
2024/01/25 01:39:11;;;;;;;8.32;1.35;;;;;;;;;;5086471;28;20499;-68
2024/01/25 01:41:39;;;;;;;4.10;1.20;;;;;;;;;;5088006;28;20185;-68
2024/01/25 01:44:08;;;;;;;5.20;0.90;;;;;;;;;;5087456;28;20148;-67
2024/01/25 01:46:37;;;;;;;4.18;1.17;;;;;;;;;;5085085;28;20048;-67
2024/01/25 01:49:06;;;;;;;7.43;1.40;;;;;;;;;;5084723;28;20139;-67
2024/01/25 01:51:35;;;;;;;10.23;1.38;;;;;;;;;;5085597;28;20051;-66
2024/01/25 01:54:04;;;;;;;6.25;1.65;;;;;;;;;;5087870;28;20044;-67
2024/01/25 01:56:34;;;;;;;5.05;1.20;;;;;;;;;;5081443;28;20500;-67
2024/01/25 01:59:01;;;;;;;5.22;1.33;;;;;;;;;;5085865;28;20107;-67
2024/01/25 02:01:30;;;;;;;3.72;1.17;;;;;;;;;;5081828;28;20044;-67
2024/01/25 02:04:01;;;;;;;6.32;1.33;;;;;;;;;;5087875;28;20040;-67
2024/01/25 02:06:29;;;;;;;2.10;1.00;;;;;;;;;;5084771;28;20489;-68
2024/01/25 02:08:59;;;;;;;4.65;1.27;;;;;;;;;;5088243;28;20052;-68
2024/01/25 02:11:27;;;;;;;4.40;1.05;;;;;;;;;;5085337;28;20554;-66
2024/01/25 02:13:57;;;;;;;2.78;1.10;;;;;;;;;;5082762;28;20503;-68
2024/01/25 02:16:25;;;;;;;6.05;1.13;;;;;;;;;;5085918;28;20048;-69
2024/01/25 02:18:57;;;;;;;3.55;1.13;;;;;;;;;;5088139;28;20135;-67
2024/01/25 02:21:25;;;;;;;7.72;1.30;;;;;;;;;;5085746;28;20051;-66
2024/01/25 02:23:55;;;;;;;6.32;1.15;;;;;;;;;;5088490;28;20090;-68
2024/01/25 02:26:24;;;;;;;3.95;1.10;;;;;;;;;;5089705;28;20087;-70
2024/01/25 02:28:52;;;;;;;4.50;1.10;;;;;;;;;;5084626;28;20059;-70
2024/01/25 02:31:23;;;;;;;6.03;1.30;;;;;;;;;;5091263;28;20056;-70
2024/01/25 02:33:51;;;;;;;5.93;1.10;;;;;;;;;;5089762;28;20105;-70
2024/01/25 02:36:20;;;;;;;5.65;1.42;;;;;;;;;;5090443;28;20075;-69
2024/01/25 02:38:48;;;;;;;6.15;1.35;;;;;;;;;;5090056;28;20047;-68
2024/01/25 02:41:18;;;;;;;6.03;1.27;;;;;;;;;;5085673;28;20170;-68
2024/01/25 02:43:46;;;;;;;9.18;1.65;;;;;;;;;;5083853;28;20110;-69
2024/01/25 02:46:15;;;;;;;6.10;1.80;;;;;;;;;;5085638;28;20489;-69
2024/01/25 02:48:43;;;;;;;4.07;1.15;;;;;;;;;;5087304;28;20080;-69
2024/01/25 02:51:12;;;;;;;6.22;1.10;;;;;;;;;;5091687;28;20044;-69
2024/01/25 02:53:40;;;;;;;4.65;1.08;;;;;;;;;;5089857;28;20482;-69
2024/01/25 02:56:09;;;;;;;5.72;1.08;;;;;;;;;;5085543;28;20064;-68
2024/01/25 02:58:38;;;;;;;4.95;1.33;;;;;;;;;;5088767;28;20113;-68
2024/01/25 03:01:07;;;;;;;6.55;1.25;;;;;;;;;;5082865;28;20436;-69
2024/01/25 03:03:35;;;;;;;6.85;1.75;;;;;;;;;;5090585;28;20477;-69
2024/01/25 03:06:04;;;;;;;4.35;1.27;;;;;;;;;;5090805;28;20139;-68
2024/01/25 03:08:32;;;;;;;3.22;1.30;;;;;;;;;;5085104;28;20052;-68
2024/01/25 03:11:03;;;;;;;5.03;1.02;;;;;;;;;;5086183;28;20090;-69
2024/01/25 03:13:34;;;;;;;3.63;1.20;;;;;;;;;;5091510;28;20048;-69
2024/01/25 03:16:04;;;;;;;6.28;1.45;;;;;;;;;;5090025;28;20052;-69
2024/01/25 03:18:32;;;;;;;5.40;1.05;;;;;;;;;;5088223;28;20036;-68
2024/01/25 03:21:01;;;;;;;4.88;1.20;;;;;;;;;;5090603;28;20500;-69
2024/01/25 03:23:29;;;;;;;4.13;1.42;;;;;;;;;;5086950;28;20040;-69
2024/01/25 03:25:58;;;;;;;5.35;0.93;;;;;;;;;;5090229;28;20051;-69
2024/01/25 03:28:26;;;;;;;3.10;0.88;;;;;;;;;;5081378;28;20105;-68
2024/01/25 03:30:54;;;;;;;6.75;1.10;;;;;;;;;;5089428;28;20056;-69
2024/01/25 03:33:25;;;;;;;3.80;0.90;;;;;;;;;;5086450;28;20248;-68
2024/01/25 03:35:53;;;;;;;2.50;0.98;;;;;;;;;;5075656;28;20052;-67
2024/01/25 03:38:22;;;;;;;6.03;1.08;;;;;;;;;;5088685;28;20043;-68
2024/01/25 03:40:50;;;;;;;3.72;0.98;;;;;;;;;;5081541;28;20071;-69
2024/01/25 03:43:19;;;;;;;4.18;1.30;;;;;;;;;;5089275;28;20075;-67
2024/01/25 03:45:52;;;;;;;2.25;1.15;;;;;;;;;;5081995;28;20127;-68
2024/01/25 03:48:19;;;;;;;4.65;0.77;;;;;;;;;;5081015;28;20493;-68
2024/01/25 03:50:49;;;;;;;8.35;1.33;;;;;;;;;;5078144;28;20093;-69
2024/01/25 03:53:19;;;;;;;1.80;1.30;;;;;;;;;;5089825;28;20101;-68
2024/01/25 03:55:48;;;;;;;3.47;1.20;;;;;;;;;;5087638;28;20048;-69
2024/01/25 03:58:17;;;;;;;4.45;1.40;;;;;;;;;;5087029;28;20048;-68
2024/01/25 04:00:46;;;;;;;11.52;1.10;;;;;;;;;;5088645;28;20576;-68
2024/01/25 04:03:15;;;;;;;4.60;1.25;;;;;;;;;;5085878;28;20206;-69
2024/01/25 04:05:43;;;;;;;4.63;0.88;;;;;;;;;;5083219;28;20045;-69
2024/01/25 04:08:13;;;;;;;4.13;1.20;;;;;;;;;;5087851;28;20052;-68
2024/01/25 04:10:41;;;;;;;1.48;1.05;;;;;;;;;;5083096;28;20093;-69
2024/01/25 04:13:09;;;;;;;6.00;0.98;;;;;;;;;;5070418;28;20056;-69
2024/01/25 04:15:38;;;;;;;5.82;1.27;;;;;;;;;;5083551;28;20048;-68
2024/01/25 04:18:06;;;;;;;4.53;1.30;;;;;;;;;;5085130;28;20167;-69
2024/01/25 04:20:35;;;;;;;5.97;0.90;;;;;;;;;;5087108;28;20139;-69
2024/01/25 04:23:03;;;;;;;1.80;0.85;;;;;;;;;;5088832;28;20576;-68
2024/01/25 04:25:33;;;;;;;7.13;1.00;;;;;;;;;;5088093;28;20046;-68
2024/01/25 04:28:02;;;;;;;5.80;0.95;;;;;;;;;;5081196;28;20040;-68
2024/01/25 04:30:32;;;;;;;5.15;0.85;;;;;;;;;;5084583;28;20040;-68
2024/01/25 04:33:01;;;;;;;3.55;1.05;;;;;;;;;;5082846;28;20340;-67
2024/01/25 04:35:31;;;;;;;6.65;1.15;;;;;;;;;;5085954;28;20075;-68
2024/01/25 04:38:00;;;;;;;4.30;1.10;;;;;;;;;;5084252;28;20059;-68
2024/01/25 04:40:28;;;;;;;4.32;1.17;;;;;;;;;;5078867;28;20105;-68
2024/01/25 04:42:58;;;;;;;2.05;0.65;;;;;;;;;;5088686;28;20462;-68
2024/01/25 04:45:27;;;;;;;4.60;0.80;;;;;;;;;;5077588;28;20040;-68
2024/01/25 04:47:55;;;;;;;6.40;0.95;;;;;;;;;;5086972;28;20060;-68
2024/01/25 04:50:24;;;;;;;5.57;1.25;;;;;;;;;;5074794;28;20044;-68
2024/01/25 04:52:52;;;;;;;5.32;1.13;;;;;;;;;;5085777;28;20043;-67
2024/01/25 04:55:21;;;;;;;3.95;1.02;;;;;;;;;;5076585;28;20075;-69
2024/01/25 04:57:53;;;;;;;3.22;0.70;;;;;;;;;;5083381;28;20055;-68
2024/01/25 05:00:23;;;;;;;4.70;1.13;;;;;;;;;;5084147;28;20047;-66
2024/01/25 05:02:52;;;;;;;5.68;0.90;;;;;;;;;;5084901;28;20129;-68
2024/01/25 05:05:20;;;;;;;7.55;1.35;;;;;;;;;;5089170;28;20105;-68
2024/01/25 05:07:49;;;;;;;6.40;1.10;;;;;;;;;;5086916;28;20047;-68
2024/01/25 05:10:17;;;;;;;8.32;1.20;;;;;;;;;;5081698;28;20051;-68
2024/01/25 05:12:46;;;;;;;6.35;1.23;;;;;;;;;;5088548;28;20048;-68
2024/01/25 05:15:14;;;;;;;3.70;0.70;;;;;;;;;;5085277;28;20455;-68
2024/01/25 05:17:44;;;;;;;3.88;1.45;;;;;;;;;;5087143;28;20051;-68
2024/01/25 05:20:15;;;;;;;4.32;1.10;;;;;;;;;;5088439;28;20052;-68
2024/01/25 05:22:43;;;;;;;4.82;1.20;;;;;;;;;;5089390;28;20083;-68
2024/01/25 05:25:12;;;;;;;4.00;1.00;;;;;;;;;;5079417;28;20521;-68
2024/01/25 05:27:40;;;;;;;2.88;0.80;;;;;;;;;;5087389;28;20040;-68
2024/01/25 05:30:10;;;;;;;4.80;1.30;;;;;;;;;;5083983;28;20131;-68
2024/01/25 05:32:38;;;;;;;5.65;1.10;;;;;;;;;;5077151;28;20037;-68
2024/01/25 05:35:09;;;;;;;4.97;1.38;;;;;;;;;;5087823;28;20074;-68
2024/01/25 05:37:38;;;;;;;4.85;1.15;;;;;;;;;;5081844;28;20565;-68
2024/01/25 05:40:07;;;;;;;5.32;1.00;;;;;;;;;;5082818;28;20040;-67
2024/01/25 05:42:35;;;;;;;4.13;1.13;;;;;;;;;;5086263;28;20462;-68
2024/01/25 05:45:04;;;;;;;4.07;1.02;;;;;;;;;;5085115;28;20106;-68
2024/01/25 05:47:32;;;;;;;5.93;1.25;;;;;;;;;;5087684;28;20383;-68
2024/01/25 05:50:02;;;;;;;3.65;1.00;;;;;;;;;;5085223;28;20056;-68
2024/01/25 05:52:33;;;;;;;1.98;0.98;;;;;;;;;;5087266;28;20048;-68
2024/01/25 05:55:02;;;;;;;2.85;1.10;;;;;;;;;;5089934;28;20040;-68
2024/01/25 05:57:34;;;;;;;7.68;1.30;;;;;;;;;;5090976;28;20048;-68
2024/01/25 06:00:03;;;;;;;7.18;1.08;;;;;;;;;;5088165;28;20431;-67
2024/01/25 06:02:31;;;;;;;4.10;0.95;;;;;;;;;;5088133;28;20101;-68
2024/01/25 06:04:59;;;;;;;3.35;0.90;;;;;;;;;;5087980;28;21288;-68
2024/01/25 06:07:28;;;;;;;6.72;0.98;;;;;;;;;;5082952;28;20455;-68
2024/01/25 06:09:58;;;;;;;2.30;0.73;;;;;;;;;;5087668;28;20083;-68
2024/01/25 06:12:27;;;;;;;2.72;0.90;;;;;;;;;;5088828;28;20070;-68
2024/01/25 06:14:55;;;;;;;4.90;1.35;;;;;;;;;;5080253;28;20043;-68
2024/01/25 06:17:24;;;;;;;4.22;1.10;;;;;;;;;;5078935;28;20134;-68
2024/01/25 06:19:52;;;;;;;3.42;0.93;;;;;;;;;;5077671;28;20067;-67
2024/01/25 06:22:21;;;;;;;4.28;1.00;;;;;;;;;;5080213;28;20043;-67
2024/01/25 06:24:49;;;;;;;5.78;1.23;;;;;;;;;;5086962;28;20040;-68
2024/01/25 06:27:19;;;;;;;3.53;1.20;;;;;;;;;;5074949;28;20098;-68
2024/01/25 06:29:48;;;;;;;3.35;1.10;;;;;;;;;;5092414;28;20047;-67
2024/01/25 06:32:16;;;;;;;4.40;1.40;;;;;;;;;;5089135;28;20044;-67
2024/01/25 06:34:54;;;;;;;8.15;0.98;;;;;;;;;;5083389;28;20044;-68
2024/01/25 06:37:23;;;;;;;3.15;1.00;;;;;;;;;;5089922;28;20052;-68
2024/01/25 06:39:51;;;;;;;2.20;1.02;;;;;;;;;;5089209;28;20113;-67
2024/01/25 06:42:21;;;;;;;6.50;1.00;;;;;;;;;;5079860;28;20048;-67
2024/01/25 06:44:50;;;;;;;6.00;1.42;;;;;;;;;;5087972;28;20105;-69
2024/01/25 06:47:18;;;;;;;6.05;1.85;;;;;;;;;;5091878;28;20044;-68
2024/01/25 06:49:51;;;;;;;5.50;1.40;;;;;;;;;;5086544;28;20051;-70
2024/01/25 06:52:20;;;;;;;5.38;1.10;;;;;;;;;;5090511;28;20056;-69
2024/01/25 06:54:49;;;;;;;6.97;1.30;;;;;;;;;;5090245;28;20044;-68
2024/01/25 06:57:17;;;;;;;4.70;1.10;;;;;;;;;;5085505;28;20105;-67
2024/01/25 06:59:47;;;;;;;3.97;1.05;;;;;;;;;;5085771;28;20048;-67
2024/01/25 07:02:16;;;;;;;3.83;1.25;;;;;;;;;;5090411;28;20052;-68
2024/01/25 07:04:45;;;;;;;4.20;0.95;;;;;;;;;;5086716;28;20079;-68
2024/01/25 07:07:14;;;;;;;5.22;1.35;;;;;;;;;;5084763;28;20052;-68
2024/01/25 07:09:43;;;;;;;5.43;1.10;;;;;;;;;;5090232;28;20040;-68
2024/01/25 07:12:11;;;;;;;5.13;1.45;;;;;;;;;;5089568;28;20051;-68
2024/01/25 07:14:40;;;;;;;5.63;1.20;;;;;;;;;;5091604;28;20191;-67
2024/01/25 07:17:10;;;;;;;3.45;1.27;;;;;;;;;;5090298;28;20500;-68
2024/01/25 07:19:38;;;;;;;7.63;2.00;;;;;;;;;;5091540;28;20056;-68
2024/01/25 07:22:06;;;;;;;7.82;1.27;;;;;;;;;;5091581;28;20071;-67
2024/01/25 07:24:35;;;;;;;3.60;1.08;;;;;;;;;;5091413;28;20040;-68
2024/01/25 07:27:03;;;;;;;6.13;1.02;;;;;;;;;;5086253;28;20090;-68
2024/01/25 07:29:32;;;;;;;7.40;1.63;;;;;;;;;;5090842;28;20496;-68
2024/01/25 07:32:00;;;;;;;8.25;1.38;;;;;;;;;;5087379;28;20489;-68
2024/01/25 07:34:30;;;;;;;6.22;1.60;;;;;;;;;;5084681;28;20396;-68
2024/01/25 07:36:59;;;;;;;4.95;1.48;;;;;;;;;;5084075;28;20068;-67
2024/01/25 07:39:27;;;;;;;3.45;1.60;;;;;;;;;;5090717;28;20086;-67
2024/01/25 07:41:56;;;;;;;6.32;1.33;;;;;;;;;;5090993;28;20048;-68
2024/01/25 07:44:24;;;;;;;4.38;1.60;;;;;;;;;;5089376;28;20048;-68
2024/01/25 07:46:53;;;;;;;4.80;1.20;;;;;;;;;;5085441;28;20043;-67
2024/01/25 07:49:21;;;;;;;5.75;1.30;;;;;;;;;;5088823;28;20101;-68
2024/01/25 07:51:51;;;;;;;3.00;1.05;;;;;;;;;;5070853;28;20119;-68
2024/01/25 07:54:20;;;;;;;6.05;1.60;;;;;;;;;;5089342;28;20075;-68
2024/01/25 07:56:48;;;;;;;7.35;1.27;;;;;;;;;;5089235;28;20055;-68
2024/01/25 07:59:17;;;;;;;6.47;1.42;;;;;;;;;;5091181;28;20496;-68
2024/01/25 08:01:45;;;;;;;3.83;1.23;;;;;;;;;;5090811;28;20052;-68
2024/01/25 08:04:14;;;;;;;5.22;1.63;;;;;;;;;;5090366;28;20419;-67
2024/01/25 08:06:42;;;;;;;4.45;1.10;;;;;;;;;;5074810;28;20449;-68
2024/01/25 08:09:12;;;;;;;9.15;1.60;;;;;;;;;;5078089;28;20048;-69
2024/01/25 08:11:41;;;;;;;6.57;1.60;;;;;;;;;;5079469;28;20044;-67
2024/01/25 08:14:09;;;;;;;6.57;1.40;;;;;;;;;;5078570;28;20044;-68
2024/01/25 08:16:39;;;;;;;4.00;1.25;;;;;;;;;;5078666;28;20044;-67
2024/01/25 08:19:07;;;;;;;8.25;1.83;;;;;;;;;;5075831;28;20067;-67
2024/01/25 08:21:36;;;;;;;8.77;1.40;;;;;;;;;;5078576;28;20344;-67
2024/01/25 08:24:05;;;;;;;7.20;1.35;;;;;;;;;;5076824;28;20041;-69
2024/01/25 08:26:35;;;;;;;6.55;1.55;;;;;;;;;;5075128;28;20102;-67
2024/01/25 08:29:03;;;;;;;4.43;1.13;;;;;;;;;;5075615;28;20056;-67
2024/01/25 08:31:32;;;;;;;12.00;1.90;;;;;;;;;;5076585;28;20056;-66
2024/01/25 08:34:01;;;;;;;2.70;1.20;;;;;;;;;;5077415;28;20051;-66
2024/01/25 08:36:30;;;;;;;7.07;1.42;;;;;;;;;;5075636;28;20071;-66
2024/01/25 08:38:58;;;;;;;3.97;1.50;;;;;;;;;;5084165;28;20040;-67
2024/01/25 08:41:27;;;;;;;5.35;1.23;;;;;;;;;;5077926;28;20495;-66
2024/01/25 08:43:56;;;;;;;5.50;1.17;;;;;;;;;;5085581;28;20492;-67
2024/01/25 08:46:25;;;;;;;5.18;1.00;;;;;;;;;;5083893;28;20161;-67
2024/01/25 08:48:53;;;;;;;5.05;1.30;;;;;;;;;;5089345;28;20093;-67
2024/01/25 08:51:22;;;;;;;2.40;1.25;;;;;;;;;;5088104;28;20052;-68
2024/01/25 08:53:51;;;;;;;3.83;1.30;;;;;;;;;;5086091;28;20052;-67
2024/01/25 08:56:19;;;;;;;4.47;1.30;;;;;;;;;;5082323;28;20061;-67
2024/01/25 08:58:50;;;;;;;7.50;1.77;;;;;;;;;;5081902;28;20048;-67
2024/01/25 09:01:20;;;;;;;7.30;1.20;;;;;;;;;;5082594;28;20044;-67
2024/01/25 09:03:48;;;;;;;4.75;1.25;;;;;;;;;;5077574;28;20511;-68
2024/01/25 09:06:18;;;;;;;5.18;1.25;;;;;;;;;;5088768;28;20350;-68
2024/01/25 09:08:47;;;;;;;5.22;1.17;;;;;;;;;;5088391;28;20500;-68
2024/01/25 09:11:15;;;;;;;8.07;2.00;;;;;;;;;;5087505;28;20162;-67
2024/01/25 09:13:45;;;;;;;11.73;2.15;;;;;;;;;;5087036;28;20481;-67
2024/01/25 09:16:14;;;;;;;6.18;1.73;;;;;;;;;;5088861;28;20052;-68
2024/01/25 09:18:44;;;;;;;8.40;1.50;;;;;;;;;;5086765;28;20131;-67
2024/01/25 09:21:13;;;;;;;4.20;1.20;;;;;;;;;;5087998;28;20501;-67
2024/01/25 09:23:41;;;;;;;9.90;1.70;;;;;;;;;;5085123;28;20048;-67
2024/01/25 09:26:10;;;;;;;7.90;1.85;;;;;;;;;;5083248;28;20121;-68
2024/01/25 09:28:38;;;;;;;4.53;1.42;;;;;;;;;;5094139;28;20432;-68
2024/01/25 09:31:07;;;;;;;2.92;1.42;;;;;;;;;;5087445;28;20125;-68
2024/01/25 09:33:36;;;;;;;6.75;1.50;;;;;;;;;;5095385;28;20127;-67
2024/01/25 09:36:06;;;;;;;4.32;1.55;;;;;;;;;;5091646;28;20045;-68
2024/01/25 09:38:35;;;;;;;3.90;1.30;;;;;;;;;;5085471;28;20424;-65
2024/01/25 09:41:04;;;;;;;3.95;1.50;;;;;;;;;;5082772;28;20055;-65
2024/01/25 09:43:32;;;;;;;5.05;2.10;;;;;;;;;;5083880;28;20048;-66
2024/01/25 09:46:02;;;;;;;6.53;1.67;;;;;;;;;;5087196;28;20048;-66
2024/01/25 09:48:31;;;;;;;11.20;2.00;;;;;;;;;;5081089;28;20126;-66
2024/01/25 09:51:00;;;;;;;5.55;2.00;;;;;;;;;;5084410;28;20052;-67
2024/01/25 09:53:34;;;;;;;5.05;1.90;;;;;;;;;;5094360;28;20139;-68
2024/01/25 09:56:08;;;;;;;8.18;1.33;;;;;;;;;;5094984;28;20040;-66
2024/01/25 09:58:39;;;;;;;4.22;1.40;;;;;;;;;;5085908;28;20040;-66
2024/01/25 10:01:10;;;;;;;6.00;1.50;;;;;;;;;;5089257;28;20048;-67
2024/01/25 10:03:40;;;;;;;11.13;2.55;;;;;;;;;;5078959;28;20125;-67
2024/01/25 10:06:10;;;;;;;3.47;1.35;;;;;;;;;;5091515;28;20044;-67
2024/01/25 10:08:40;;;;;;;13.45;2.15;;;;;;;;;;5089673;28;20136;-67
2024/01/25 10:11:09;;;;;;;9.98;1.63;;;;;;;;;;5087978;28;20509;-67
2024/01/25 10:13:42;;;;;;;3.97;1.40;;;;;;;;;;5095682;28;20089;-67
2024/01/25 10:16:12;;;;;;;8.23;1.73;;;;;;;;;;5095822;28;20089;-66
2024/01/25 10:18:42;;;;;;;5.85;1.60;;;;;;;;;;5094250;28;20131;-66
2024/01/25 10:21:11;;;;;;;4.55;1.55;;;;;;;;;;5085728;28;20089;-67
2024/01/25 10:23:42;;;;;;;8.88;1.92;;;;;;;;;;5081309;28;20128;-66
2024/01/25 10:26:11;;;;;;;13.82;1.70;;;;;;;;;;5084949;28;20036;-70
2024/01/25 10:28:39;;;;;;;3.13;1.38;;;;;;;;;;5089115;28;20056;-72
2024/01/25 10:31:08;;;;;;;5.97;1.50;;;;;;;;;;5074969;28;20458;-71
2024/01/25 10:33:40;;;;;;;5.18;1.65;;;;;;;;;;5088994;28;20067;-71
2024/01/25 10:36:10;;;;;;;10.43;2.08;;;;;;;;;;5081146;28;20078;-74
2024/01/25 10:38:38;;;;;;;8.95;1.50;;;;;;;;;;5082374;28;20123;-73
2024/01/25 10:41:08;;;;;;;5.50;1.50;;;;;;;;;;5072257;28;20071;-71
2024/01/25 10:43:37;;;;;;;8.32;1.42;;;;;;;;;;5076732;28;20080;-72
2024/01/25 10:46:06;;;;;;;5.63;1.80;;;;;;;;;;5091189;28;20051;-72
2024/01/25 10:48:35;;;;;;;7.90;1.52;;;;;;;;;;5086960;28;20123;-72
2024/01/25 10:51:04;;;;;;;5.65;1.80;;;;;;;;;;5081054;28;20071;-72
2024/01/25 10:53:34;;;;;;;3.85;1.65;;;;;;;;;;5085250;28;20045;-73
2024/01/25 10:56:03;;;;;;;4.68;1.70;;;;;;;;;;5074306;28;20058;-73
2024/01/25 10:58:35;;;;;;;6.68;2.50;;;;;;;;;;5078854;28;20058;-73
2024/01/25 11:01:10;;;;;;;9.73;2.03;;;;;;;;;;5087773;28;20078;-66
2024/01/25 11:03:43;;;;;;;9.68;2.00;;;;;;;;;;5090862;28;20040;-66
2024/01/25 11:06:13;;;;;;;5.32;1.30;;;;;;;;;;5091144;28;20060;-67
2024/01/25 11:08:42;;;;;;;3.65;1.25;;;;;;;;;;5090010;28;20048;-69
2024/01/25 11:11:12;;;;;;;10.05;1.50;;;;;;;;;;5091464;28;20162;-69
2024/01/25 11:13:42;;;;;;;5.10;1.20;;;;;;;;;;5085423;28;20490;-69
2024/01/25 11:16:15;;;;;;;4.63;1.35;;;;;;;;;;5088470;28;20040;-68
2024/01/25 11:18:51;;;;;;;2.17;1.33;;;;;;;;;;5092661;28;20055;-69
2024/01/25 11:21:29;;;;;;;5.93;1.30;;;;;;;;;;5081338;28;20044;-69
2024/01/25 11:24:01;;;;;;;4.63;1.23;;;;;;;;;;5078865;28;20284;-68
2024/01/25 11:26:30;;;;;;;7.13;1.30;;;;;;;;;;5076133;28;20044;-69
2024/01/25 11:29:00;;;;;;;7.03;1.55;;;;;;;;;;5075346;28;20047;-69
2024/01/25 11:31:29;;;;;;;11.15;1.80;;;;;;;;;;5087922;28;20126;-69
2024/01/25 11:33:59;;;;;;;5.22;1.65;;;;;;;;;;5089391;28;20124;-69
2024/01/25 11:36:28;;;;;;;9.52;1.70;;;;;;;;;;5090807;28;20101;-69
2024/01/25 11:38:57;;;;;;;6.30;1.27;;;;;;;;;;5090599;28;20056;-69
2024/01/25 11:41:25;;;;;;;7.15;1.77;;;;;;;;;;5090971;28;20040;-69
2024/01/25 11:43:54;;;;;;;5.75;1.42;;;;;;;;;;5089942;28;20055;-69
2024/01/25 11:46:24;;;;;;;4.45;1.38;;;;;;;;;;5078890;28;20524;-69
2024/01/25 11:48:53;;;;;;;7.20;1.75;;;;;;;;;;5084515;28;20056;-69
2024/01/25 11:51:21;;;;;;;4.00;1.60;;;;;;;;;;5076451;28;20048;-69
2024/01/25 11:53:50;;;;;;;8.85;1.25;;;;;;;;;;5090052;28;20059;-66
2024/01/25 11:56:21;;;;;;;7.35;1.73;;;;;;;;;;5087035;28;20208;-66
2024/01/25 11:58:49;;;;;;;7.28;1.40;;;;;;;;;;5086155;28;20066;-67
2024/01/25 12:01:19;;;;;;;9.38;1.55;;;;;;;;;;5074837;28;20245;-66
2024/01/25 12:03:49;;;;;;;11.02;1.70;;;;;;;;;;5090872;28;20052;-67
2024/01/25 12:06:18;;;;;;;5.45;1.23;;;;;;;;;;5089412;28;20057;-66
2024/01/25 12:08:48;;;;;;;6.05;1.38;;;;;;;;;;5077186;28;20127;-66
2024/01/25 12:11:18;;;;;;;7.50;2.20;;;;;;;;;;5083727;28;20055;-68
2024/01/25 12:13:47;;;;;;;7.07;1.17;;;;;;;;;;5078489;28;20063;-68
2024/01/25 12:16:15;;;;;;;7.80;1.80;;;;;;;;;;5088990;28;20044;-69
2024/01/25 12:18:45;;;;;;;3.08;1.25;;;;;;;;;;5089800;28;20039;-69
2024/01/25 12:21:15;;;;;;;10.35;1.55;;;;;;;;;;5089576;28;20127;-68
2024/01/25 12:23:44;;;;;;;5.13;1.52;;;;;;;;;;5084688;28;20073;-69
2024/01/25 12:26:12;;;;;;;6.78;1.20;;;;;;;;;;5090289;28;20511;-68
2024/01/25 12:28:42;;;;;;;4.80;1.58;;;;;;;;;;5079467;28;20055;-68
2024/01/25 12:31:11;;;;;;;3.15;1.15;;;;;;;;;;5075232;28;20481;-68
2024/01/25 12:33:39;;;;;;;7.70;1.50;;;;;;;;;;5080636;28;20725;-68
2024/01/25 12:36:08;;;;;;;4.50;1.10;;;;;;;;;;5078501;28;20040;-68
2024/01/25 12:38:39;;;;;;;3.22;1.30;;;;;;;;;;5081177;28;20079;-69
2024/01/25 12:41:07;;;;;;;3.88;1.30;;;;;;;;;;5080226;28;20044;-68
2024/01/25 12:43:36;;;;;;;5.50;1.17;;;;;;;;;;5078223;28;20407;-68
2024/01/25 12:46:04;;;;;;;7.50;1.23;;;;;;;;;;5085767;28;20037;-68
2024/01/25 12:48:54;;;;;;;6.13;1.38;;;;;;;;;;5079967;28;20044;-69
2024/01/25 12:51:23;;;;;;;5.32;1.63;;;;;;;;;;5085075;28;20063;-69
2024/01/25 12:53:53;;;;;;;6.75;1.35;;;;;;;;;;5086823;28;20040;-69
2024/01/25 12:56:22;;;;;;;8.75;2.08;;;;;;;;;;5087733;28;20075;-69
2024/01/25 12:58:51;;;;;;;4.07;1.25;;;;;;;;;;5079242;28;20047;-69
2024/01/25 13:01:21;;;;;;;5.47;1.60;;;;;;;;;;5085945;28;20075;-68
2024/01/25 13:03:50;;;;;;;4.68;1.52;;;;;;;;;;5080965;28;20412;-70
2024/01/25 13:06:18;;;;;;;4.60;1.15;;;;;;;;;;5088949;28;20442;-70
2024/01/25 13:08:47;;;;;;;5.88;1.17;;;;;;;;;;5087862;28;20054;-68
2024/01/25 13:11:17;;;;;;;4.95;1.10;;;;;;;;;;5079403;28;20060;-66
2024/01/25 13:13:45;;;;;;;6.38;1.48;;;;;;;;;;5085818;28;20105;-66
2024/01/25 13:16:14;;;;;;;5.22;1.30;;;;;;;;;;5084143;28;20454;-68
2024/01/25 13:18:42;;;;;;;8.25;1.30;;;;;;;;;;5084479;28;20517;-68
2024/01/25 13:21:11;;;;;;;4.63;1.15;;;;;;;;;;5087700;28;20048;-69
2024/01/25 13:23:39;;;;;;;3.97;0.93;;;;;;;;;;5088775;28;20052;-68
2024/01/25 13:26:08;;;;;;;5.50;1.23;;;;;;;;;;5089153;28;20146;-68
2024/01/25 13:28:37;;;;;;;4.97;1.20;;;;;;;;;;5088875;28;20052;-68
2024/01/25 13:31:06;;;;;;;3.75;1.13;;;;;;;;;;5086035;28;20048;-68
2024/01/25 13:33:34;;;;;;;3.60;1.10;;;;;;;;;;5072143;28;20099;-68
2024/01/25 13:36:04;;;;;;;6.00;1.30;;;;;;;;;;5077908;28;20040;-68
2024/01/25 13:38:33;;;;;;;3.33;1.02;;;;;;;;;;5086399;28;20561;-69
2024/01/25 13:41:01;;;;;;;5.32;1.20;;;;;;;;;;5086923;28;20070;-68
2024/01/25 13:43:29;;;;;;;4.57;1.38;;;;;;;;;;5085215;28;20051;-68
2024/01/25 13:45:59;;;;;;;7.10;1.45;;;;;;;;;;5087940;28;20044;-68
2024/01/25 13:48:28;;;;;;;2.53;1.13;;;;;;;;;;5076147;28;20479;-68
2024/01/25 13:50:57;;;;;;;3.67;1.02;;;;;;;;;;5082208;28;20048;-68
2024/01/25 13:53:25;;;;;;;3.75;1.38;;;;;;;;;;5086624;28;20047;-68
2024/01/25 13:55:54;;;;;;;2.67;1.00;;;;;;;;;;5088447;28;20450;-68
2024/01/25 13:58:22;;;;;;;2.97;1.10;;;;;;;;;;5085525;28;20047;-69
2024/01/25 14:00:50;;;;;;;5.03;1.20;;;;;;;;;;5086551;28;20105;-69
2024/01/25 14:03:20;;;;;;;3.97;0.98;;;;;;;;;;5088091;28;20036;-69
2024/01/25 14:05:49;;;;;;;3.00;1.33;;;;;;;;;;5086573;28;20055;-69
2024/01/25 14:08:17;;;;;;;6.32;1.45;;;;;;;;;;5086622;28;20098;-69
2024/01/25 14:10:46;;;;;;;4.80;1.00;;;;;;;;;;5085544;28;20048;-69
2024/01/25 14:13:14;;;;;;;3.50;1.25;;;;;;;;;;5088783;28;20051;-69
2024/01/25 14:15:43;;;;;;;3.90;1.25;;;;;;;;;;5085731;28;20062;-69
2024/01/25 14:18:12;;;;;;;6.38;1.17;;;;;;;;;;5084366;28;20055;-69
2024/01/25 14:20:43;;;;;;;4.03;0.88;;;;;;;;;;5083799;28;20655;-70
2024/01/25 14:23:11;;;;;;;7.47;1.00;;;;;;;;;;5089263;28;20055;-69
2024/01/25 14:25:40;;;;;;;5.38;1.30;;;;;;;;;;5081842;28;20055;-69
2024/01/25 14:28:08;;;;;;;4.07;1.17;;;;;;;;;;5079627;28;20637;-70
2024/01/25 14:30:37;;;;;;;2.33;0.82;;;;;;;;;;5084082;28;20044;-69
2024/01/25 14:33:06;;;;;;;3.78;1.10;;;;;;;;;;5077888;28;20048;-69
2024/01/25 14:35:34;;;;;;;5.07;1.02;;;;;;;;;;5081800;28;20197;-69
2024/01/25 14:38:04;;;;;;;3.72;0.90;;;;;;;;;;5080244;28;20040;-70
2024/01/25 14:40:33;;;;;;;4.65;1.02;;;;;;;;;;5086033;28;20413;-69
2024/01/25 14:43:21;;;;;;;3.30;0.98;;;;;;;;;;5087243;28;20142;-70
2024/01/25 14:45:50;;;;;;;5.25;1.00;;;;;;;;;;5087742;28;20045;-69
2024/01/25 14:48:18;;;;;;;2.95;1.15;;;;;;;;;;5085276;28;20139;-69
2024/01/25 14:50:47;;;;;;;8.82;1.42;;;;;;;;;;5083094;28;20053;-69
2024/01/25 14:53:18;;;;;;;8.20;1.10;;;;;;;;;;5089271;28;20048;-69
2024/01/25 14:55:46;;;;;;;8.25;1.10;;;;;;;;;;5089957;28;20044;-69